Time;durP1;ratioP1;P1;durP2;ratioP2;P2;SDS_P1;SDS_P2;PMS_P1;PMS_P2;Temp;Humidity;BMP_temperature;BMP_pressure;BME280_temperature;BME280_humidity;BME280_pressure;Samples;Min_cycle;Max_cycle;Signal;HPM_P1;HPM_P2
2023/11/04 00:02:14;;;;;;;2.80;1.40;;;;;;;18.64;80.60;98437.41;5017253;28;20026;-38
2023/11/04 00:04:40;;;;;;;2.65;1.40;;;;;;;18.62;80.76;98442.41;5016829;28;20474;-39
2023/11/04 00:07:06;;;;;;;4.47;1.70;;;;;;;18.62;80.65;98428.69;5019375;28;20013;-40
2023/11/04 00:09:31;;;;;;;2.90;1.60;;;;;;;18.60;80.92;98433.72;5021675;28;20037;-43
2023/11/04 00:11:56;;;;;;;3.20;1.50;;;;;;;18.58;80.58;98422.31;5022965;28;20242;-45
2023/11/04 00:14:22;;;;;;;2.75;1.40;;;;;;;18.58;81.19;98425.84;5023723;28;20109;-45
2023/11/04 00:16:47;;;;;;;1.92;1.50;;;;;;;18.57;81.09;98428.91;5021916;28;20030;-44
2023/11/04 00:19:14;;;;;;;2.25;1.40;;;;;;;18.56;81.37;98430.06;5016470;28;20057;-44
2023/11/04 00:21:41;;;;;;;4.45;1.77;;;;;;;18.54;81.39;98424.91;4999701;28;20087;-44
2023/11/04 00:24:08;;;;;;;2.55;1.55;;;;;;;18.54;81.21;98426.84;5020054;28;20022;-44
2023/11/04 00:26:34;;;;;;;2.22;1.42;;;;;;;18.53;81.55;98425.25;5018359;28;20543;-43
2023/11/04 00:29:00;;;;;;;4.32;1.70;;;;;;;18.52;81.34;98423.66;5018271;28;20029;-44
2023/11/04 00:31:27;;;;;;;3.40;1.65;;;;;;;18.51;81.70;98431.06;5017909;28;20375;-43
2023/11/04 00:33:53;;;;;;;1.63;1.40;;;;;;;18.50;81.58;98434.16;5026134;28;20017;-44
2023/11/04 00:36:18;;;;;;;2.10;1.60;;;;;;;18.48;81.89;98429.00;5016695;28;20030;-44
2023/11/04 00:38:44;;;;;;;3.22;1.70;;;;;;;18.48;81.91;98425.44;5015190;28;20021;-44
2023/11/04 00:41:09;;;;;;;2.03;1.50;;;;;;;18.47;81.97;98421.09;5023993;28;20514;-46
2023/11/04 00:43:36;;;;;;;2.67;1.90;;;;;;;18.46;82.28;98423.06;5017574;28;20493;-46
2023/11/04 00:46:02;;;;;;;2.72;1.40;;;;;;;18.45;82.05;98413.22;5013009;28;20037;-45
2023/11/04 00:48:27;;;;;;;6.15;1.92;;;;;;;18.44;82.48;98414.34;5019509;28;20663;-43
2023/11/04 00:50:53;;;;;;;3.78;1.50;;;;;;;18.44;82.22;98425.31;5022250;28;20045;-44
2023/11/04 00:53:18;;;;;;;1.95;1.52;;;;;;;18.42;82.29;98425.66;5014105;28;20034;-44
2023/11/04 00:55:44;;;;;;;5.22;1.50;;;;;;;18.42;82.24;98422.94;5009574;28;20026;-38
2023/11/04 00:58:09;;;;;;;1.95;1.50;;;;;;;18.41;82.60;98423.28;5015640;28;20084;-38
2023/11/04 01:00:35;;;;;;;3.05;1.60;;;;;;;18.40;82.67;98424.41;5014414;28;20037;-44
2023/11/04 01:03:00;;;;;;;3.22;1.60;;;;;;;18.40;82.70;98436.16;5019865;28;20533;-38
2023/11/04 01:05:26;;;;;;;5.38;1.65;;;;;;;18.40;82.90;98424.41;5017244;28;20117;-38
2023/11/04 01:07:52;;;;;;;1.98;1.40;;;;;;;18.39;83.20;98431.03;5019104;28;20037;-44
2023/11/04 01:10:18;;;;;;;1.75;1.60;;;;;;;18.39;83.12;98425.53;5016398;28;20025;-44
2023/11/04 01:12:43;;;;;;;2.67;1.63;;;;;;;18.37;83.12;98430.56;5015306;28;20072;-44
2023/11/04 01:15:09;;;;;;;2.72;1.50;;;;;;;18.36;83.33;98428.97;5025242;28;20083;-44
2023/11/04 01:17:34;;;;;;;3.55;1.60;;;;;;;18.36;83.09;98431.72;5019466;28;20471;-43
2023/11/04 01:20:00;;;;;;;3.00;1.80;;;;;;;18.36;83.32;98426.22;5016777;28;20494;-43
2023/11/04 01:22:25;;;;;;;3.22;1.60;;;;;;;18.35;83.44;98421.88;5023526;28;20030;-43
2023/11/04 01:24:50;;;;;;;2.72;1.75;;;;;;;18.35;83.33;98419.13;5014905;28;20482;-45
2023/11/04 01:27:16;;;;;;;2.85;1.30;;;;;;;18.34;83.67;98420.28;5016443;28;20104;-44
2023/11/04 01:29:42;;;;;;;4.03;1.65;;;;;;;18.33;83.65;98424.16;5018544;28;20052;-44
2023/11/04 01:32:07;;;;;;;7.60;1.98;;;;;;;18.33;83.92;98415.94;5023103;28;20033;-44
2023/11/04 01:34:33;;;;;;;2.97;1.50;;;;;;;18.32;83.67;98420.63;5024465;28;20036;-44
2023/11/04 01:36:58;;;;;;;2.53;1.67;;;;;;;18.32;83.65;98420.63;5026313;28;20036;-44
2023/11/04 01:39:23;;;;;;;6.28;1.60;;;;;;;18.31;84.03;98418.19;5027270;28;20039;-44
2023/11/04 01:41:49;;;;;;;2.90;1.65;;;;;;;18.31;84.10;98419.00;5022328;28;20036;-43
2023/11/04 01:44:15;;;;;;;3.25;1.65;;;;;;;18.30;83.96;98417.41;5024381;28;20445;-44
2023/11/04 01:46:41;;;;;;;3.28;1.90;;;;;;;18.30;83.89;98416.63;5023591;28;20825;-44
2023/11/04 01:49:08;;;;;;;2.28;1.60;;;;;;;18.29;84.31;98413.06;5021901;28;20477;-45
2023/11/04 01:51:33;;;;;;;3.05;1.52;;;;;;;18.29;84.47;98410.31;5029247;28;20040;-43
2023/11/04 01:53:59;;;;;;;1.95;1.40;;;;;;;18.28;84.35;98406.78;5027755;28;20060;-44
2023/11/04 01:56:27;;;;;;;3.05;1.60;;;;;;;18.27;84.44;98410.66;5024054;28;20508;-44
2023/11/04 01:58:55;;;;;;;2.20;1.70;;;;;;;18.26;84.59;98409.06;5020585;28;20555;-43
2023/11/04 02:01:20;;;;;;;3.10;1.50;;;;;;;18.27;84.84;98404.34;5025997;28;20025;-44
2023/11/04 02:03:46;;;;;;;2.80;1.65;;;;;;;18.26;84.71;98394.56;5016386;28;20037;-38
2023/11/04 02:06:11;;;;;;;2.83;1.60;;;;;;;18.26;84.69;98391.81;5019891;28;20520;-38
2023/11/04 02:08:37;;;;;;;3.58;1.75;;;;;;;18.26;84.79;98406.31;5022444;28;20064;-38
2023/11/04 02:11:03;;;;;;;3.47;1.80;;;;;;;18.26;84.87;98403.56;5025658;28;20238;-38
2023/11/04 02:13:30;;;;;;;2.33;1.52;;;;;;;18.26;85.07;98391.81;5031129;28;20033;-43
2023/11/04 02:15:55;;;;;;;2.70;1.90;;;;;;;18.24;85.08;98396.81;5024313;28;20036;-44
2023/11/04 02:18:20;;;;;;;3.40;1.50;;;;;;;18.25;85.34;98401.97;5019345;28;20449;-38
2023/11/04 02:20:46;;;;;;;2.72;1.40;;;;;;;18.23;85.43;98397.94;5025129;28;20038;-37
2023/11/04 02:23:13;;;;;;;4.95;1.88;;;;;;;18.23;85.14;98398.78;5026533;28;20068;-38
2023/11/04 02:25:39;;;;;;;4.22;1.98;;;;;;;18.23;85.34;98389.72;5025374;28;20022;-39
2023/11/04 02:28:05;;;;;;;3.22;1.60;;;;;;;18.23;85.53;98389.72;5023945;28;20021;-44
2023/11/04 02:30:30;;;;;;;3.67;1.83;;;;;;;18.23;85.83;98389.72;5020303;28;20330;-44
2023/11/04 02:32:56;;;;;;;3.20;1.77;;;;;;;18.21;85.73;98387.34;5019070;28;20088;-44
2023/11/04 02:35:21;;;;;;;1.73;1.58;;;;;;;18.23;85.74;98392.47;5023313;28;20030;-43
2023/11/04 02:37:56;;;;;;;2.13;1.60;;;;;;;18.21;85.91;98379.09;5024246;28;20393;-45
2023/11/04 02:40:21;;;;;;;3.88;1.92;;;;;;;18.22;85.87;98388.13;5024419;28;20133;-38
2023/11/04 02:42:47;;;;;;;3.20;1.60;;;;;;;18.21;85.82;98384.59;5026881;28;20529;-39
2023/11/04 02:45:13;;;;;;;3.42;1.70;;;;;;;18.21;86.14;98386.50;5020436;28;20035;-39
2023/11/04 02:47:38;;;;;;;2.40;1.60;;;;;;;18.21;85.87;98375.53;5019986;28;20022;-39
2023/11/04 02:50:04;;;;;;;4.95;1.63;;;;;;;18.20;86.32;98371.22;5023308;28;20025;-39
2023/11/04 02:52:29;;;;;;;2.20;1.70;;;;;;;18.20;86.22;98371.22;5021526;28;20052;-39
2023/11/04 02:54:55;;;;;;;2.40;1.80;;;;;;;18.20;86.21;98376.72;5027825;28;20379;-38
2023/11/04 02:57:20;;;;;;;2.53;1.58;;;;;;;18.18;86.51;98362.53;5016210;28;20050;-38
2023/11/04 02:59:46;;;;;;;3.47;1.90;;;;;;;18.18;86.19;98363.31;5017011;28;20105;-38
2023/11/04 03:02:11;;;;;;;2.17;1.70;;;;;;;18.18;86.35;98360.56;5015447;28;20038;-38
2023/11/04 03:04:40;;;;;;;2.25;1.50;;;;;;;18.18;86.17;98363.31;5025891;28;20112;-38
2023/11/04 03:07:05;;;;;;;3.20;1.83;;;;;;;18.16;86.51;98356.56;5023203;28;20168;-38
2023/11/04 03:09:31;;;;;;;3.25;1.65;;;;;;;18.17;86.45;98356.22;5028569;28;20564;-38
2023/11/04 03:11:57;;;;;;;3.30;1.77;;;;;;;18.17;86.66;98355.44;5020262;28;20502;-38
2023/11/04 03:14:24;;;;;;;4.72;2.08;;;;;;;18.17;86.86;98355.44;5021746;28;20036;-37
2023/11/04 03:16:51;;;;;;;2.28;1.50;;;;;;;18.17;86.75;98355.44;5016307;28;20167;-38
2023/11/04 03:19:16;;;;;;;2.53;1.60;;;;;;;18.16;86.83;98348.34;5032567;28;20032;-37
2023/11/04 03:21:45;;;;;;;3.72;1.90;;;;;;;18.16;86.77;98353.84;5032663;28;20401;-38
2023/11/04 03:24:11;;;;;;;3.53;2.00;;;;;;;18.15;86.62;98342.09;5015410;28;20038;-38
2023/11/04 03:26:36;;;;;;;3.08;1.70;;;;;;;18.15;86.64;98346.75;5019830;28;20061;-38
2023/11/04 03:29:02;;;;;;;2.58;1.80;;;;;;;18.14;86.51;98350.66;5022980;28;20064;-38
2023/11/04 03:31:27;;;;;;;5.88;1.83;;;;;;;18.14;86.67;98350.66;5018762;28;20389;-43
2023/11/04 03:33:52;;;;;;;5.03;2.22;;;;;;;18.14;86.72;98345.16;5025146;28;20024;-43
2023/11/04 03:36:18;;;;;;;2.60;1.90;;;;;;;18.11;86.89;98354.84;5023375;28;20437;-44
2023/11/04 03:38:43;;;;;;;2.35;1.65;;;;;;;18.11;86.85;98346.63;5021464;28;20032;-43
2023/11/04 03:41:09;;;;;;;2.85;1.70;;;;;;;18.11;86.94;98349.34;5024974;28;20037;-43
2023/11/04 03:43:35;;;;;;;2.90;1.60;;;;;;;18.10;86.73;98343.09;5024088;28;20033;-43
2023/11/04 03:46:02;;;;;;;2.92;1.60;;;;;;;18.09;86.85;98341.47;5023618;28;20083;-44
2023/11/04 03:48:27;;;;;;;2.10;1.85;;;;;;;18.09;87.12;98337.94;5022532;28;20436;-44
2023/11/04 03:50:53;;;;;;;3.58;1.70;;;;;;;18.07;86.99;98327.31;5017476;28;20025;-38
2023/11/04 03:53:18;;;;;;;3.20;1.77;;;;;;;18.08;87.16;98326.16;5025033;28;20048;-38
2023/11/04 03:55:43;;;;;;;4.35;1.92;;;;;;;18.08;87.47;98328.13;5015369;28;20026;-38
2023/11/04 03:58:09;;;;;;;2.50;1.90;;;;;;;18.09;87.07;98327.00;5014757;28;20037;-37
2023/11/04 04:00:35;;;;;;;2.67;1.73;;;;;;;18.08;87.48;98325.38;5014992;28;20412;-38
2023/11/04 04:03:00;;;;;;;4.20;1.83;;;;;;;18.08;87.32;98319.91;5010805;28;20064;-38
2023/11/04 04:05:26;;;;;;;2.47;1.55;;;;;;;18.07;87.40;98323.78;5023613;28;20025;-39
2023/11/04 04:07:51;;;;;;;2.92;1.77;;;;;;;18.06;87.40;98316.69;5018759;28;20131;-38
2023/11/04 04:10:17;;;;;;;4.05;1.58;;;;;;;18.06;87.67;98323.00;5021712;28;20608;-39
2023/11/04 04:12:42;;;;;;;3.70;1.77;;;;;;;18.06;87.58;98320.25;5006233;28;20037;-39
2023/11/04 04:15:08;;;;;;;2.95;1.70;;;;;;;18.06;87.69;98311.19;5011262;28;20022;-39
2023/11/04 04:17:34;;;;;;;5.00;2.00;;;;;;;18.05;87.77;98312.34;5023344;28;20036;-39
2023/11/04 04:19:59;;;;;;;2.30;1.70;;;;;;;18.05;87.51;98313.16;5023774;28;20025;-37
2023/11/04 04:22:24;;;;;;;3.70;1.80;;;;;;;18.05;87.67;98315.91;5027397;28;20316;-37
2023/11/04 04:24:50;;;;;;;4.30;1.85;;;;;;;18.03;87.54;98311.91;5020407;28;20658;-38
2023/11/04 04:27:15;;;;;;;2.38;1.70;;;;;;;18.04;87.83;98317.03;5025992;28;20116;-37
2023/11/04 04:29:41;;;;;;;3.70;1.80;;;;;;;18.03;87.80;98306.41;5021799;28;20279;-38
2023/11/04 04:32:06;;;;;;;1.67;1.45;;;;;;;18.04;87.88;98313.50;5024194;28;20021;-43
2023/11/04 04:34:32;;;;;;;2.55;1.70;;;;;;;18.02;87.90;98302.06;5030739;28;20032;-38
2023/11/04 04:36:58;;;;;;;2.45;1.75;;;;;;;18.00;87.69;98304.34;5020708;28;20037;-38
2023/11/04 04:39:24;;;;;;;2.60;1.67;;;;;;;18.02;87.93;98307.53;5019125;28;20086;-43
2023/11/04 04:41:50;;;;;;;2.67;1.60;;;;;;;18.01;88.10;98301.25;5026209;28;20179;-43
2023/11/04 04:44:15;;;;;;;2.92;1.73;;;;;;;18.00;88.14;98294.19;5022876;28;20112;-43
2023/11/04 04:46:40;;;;;;;4.07;1.77;;;;;;;18.01;88.35;98292.25;5027033;28;20175;-44
2023/11/04 04:49:06;;;;;;;2.55;1.60;;;;;;;18.01;88.31;98294.97;5024303;28;20817;-38
2023/11/04 04:51:32;;;;;;;5.10;1.75;;;;;;;18.01;88.06;98284.03;5026536;28;20033;-38
2023/11/04 04:53:57;;;;;;;3.25;1.60;;;;;;;18.00;88.21;98288.72;5017790;28;21099;-38
2023/11/04 04:56:26;;;;;;;3.25;1.65;;;;;;;18.00;88.21;98283.22;5023448;28;20029;-43
2023/11/04 04:58:52;;;;;;;3.92;1.90;;;;;;;18.01;88.35;98289.50;5019409;28;20033;-38
2023/11/04 05:01:22;;;;;;;3.33;1.80;;;;;;;18.00;87.96;98279.66;5017023;28;20060;-39
2023/11/04 05:03:48;;;;;;;2.67;1.80;;;;;;;17.99;88.18;98280.81;5022225;28;20057;-38
2023/11/04 05:06:14;;;;;;;4.38;2.00;;;;;;;17.99;88.30;98275.31;5025388;28;20037;-39
2023/11/04 05:08:40;;;;;;;5.30;1.95;;;;;;;17.99;87.96;98272.59;5013756;28;20024;-39
2023/11/04 05:11:07;;;;;;;3.70;2.40;;;;;;;17.98;88.08;98273.72;5015845;28;20061;-39
2023/11/04 05:13:32;;;;;;;3.78;1.70;;;;;;;17.98;88.19;98260.00;5025177;28;20028;-38
2023/11/04 05:15:58;;;;;;;3.78;2.08;;;;;;;17.97;88.18;98267.44;5029452;28;20030;-39
2023/11/04 05:18:23;;;;;;;2.75;1.70;;;;;;;17.96;88.33;98258.44;5014631;28;20032;-38
2023/11/04 05:20:48;;;;;;;3.88;2.08;;;;;;;17.95;88.29;98247.78;5029166;28;20527;-38
2023/11/04 05:23:16;;;;;;;2.92;1.85;;;;;;;17.95;88.15;98250.53;5024886;28;20029;-37
2023/11/04 05:25:42;;;;;;;3.85;1.80;;;;;;;17.95;88.17;98245.06;5037911;28;20176;-37
2023/11/04 05:28:08;;;;;;;3.25;1.98;;;;;;;17.95;88.61;98250.53;5036922;28;20021;-38
2023/11/04 05:30:35;;;;;;;4.25;2.10;;;;;;;17.94;88.36;98247.00;5028700;28;20029;-39
2023/11/04 05:33:00;;;;;;;3.10;2.00;;;;;;;17.94;88.33;98243.44;5018631;28;20564;-38
2023/11/04 05:35:26;;;;;;;2.78;1.85;;;;;;;17.93;88.58;98239.09;5019363;28;20029;-38
2023/11/04 05:37:52;;;;;;;4.40;1.95;;;;;;;17.93;88.23;98241.84;5024443;28;20121;-38
2023/11/04 05:40:17;;;;;;;2.15;1.60;;;;;;;17.92;88.20;98230.06;5022835;28;20033;-38
2023/11/04 05:42:42;;;;;;;5.60;1.70;;;;;;;17.92;88.53;98241.03;5017403;28;20495;-38
2023/11/04 05:45:08;;;;;;;4.90;2.13;;;;;;;17.91;88.49;98227.66;5028822;28;20068;-38
2023/11/04 05:47:34;;;;;;;2.88;1.90;;;;;;;17.92;88.32;98218.31;5027128;28;20017;-38
2023/11/04 05:50:00;;;;;;;5.80;2.42;;;;;;;17.90;88.34;98221.41;5026347;28;20061;-39
2023/11/04 05:52:26;;;;;;;3.75;2.00;;;;;;;17.89;88.30;98213.50;5019223;28;20071;-43
2023/11/04 05:54:52;;;;;;;3.92;2.20;;;;;;;17.88;88.44;98209.97;5025756;28;20025;-43
2023/11/04 05:57:18;;;;;;;3.97;1.80;;;;;;;17.90;88.56;98209.63;5025590;28;20045;-43
2023/11/04 05:59:44;;;;;;;6.25;2.15;;;;;;;17.91;89.08;98212.00;5025387;28;20041;-45
2023/11/04 06:02:09;;;;;;;5.03;2.00;;;;;;;17.97;89.49;98207.16;5022551;28;20025;-49
2023/11/04 06:04:35;;;;;;;4.75;2.10;;;;;;;18.02;89.34;98197.91;5022045;28;20080;-47
2023/11/04 06:07:00;;;;;;;3.58;1.88;;;;;;;18.09;89.68;98201.69;5028197;28;20442;-48
2023/11/04 06:09:26;;;;;;;5.25;1.90;;;;;;;18.16;89.67;98198.41;5018627;28;20040;-49
2023/11/04 06:11:51;;;;;;;4.35;2.08;;;;;;;18.21;89.42;98200.09;5024120;28;20032;-50
2023/11/04 06:14:17;;;;;;;6.57;2.22;;;;;;;18.26;89.78;98189.72;5022239;28;20394;-52
2023/11/04 06:16:43;;;;;;;4.65;2.08;;;;;;;18.31;89.49;98187.88;5024727;28;20025;-41
2023/11/04 06:19:08;;;;;;;4.30;2.20;;;;;;;18.34;89.23;98190.72;5023155;28;20033;-40
2023/11/04 06:21:34;;;;;;;4.57;2.10;;;;;;;18.39;89.66;98186.97;5022734;28;20477;-42
2023/11/04 06:23:59;;;;;;;3.78;2.00;;;;;;;18.41;89.37;98185.47;5027511;28;20505;-41
2023/11/04 06:26:25;;;;;;;4.80;1.92;;;;;;;18.43;89.12;98188.69;5022002;28;20034;-42
2023/11/04 06:28:50;;;;;;;3.28;2.20;;;;;;;18.47;88.95;98182.50;5035491;28;20488;-42
2023/11/04 06:31:17;;;;;;;4.93;2.00;;;;;;;18.49;88.85;98172.00;5029053;28;20563;-39
2023/11/04 06:33:42;;;;;;;4.25;1.80;;;;;;;18.48;88.32;98164.91;5025146;28;20045;-39
2023/11/04 06:36:08;;;;;;;4.63;1.98;;;;;;;18.50;87.96;98173.59;5019764;28;20033;-39
2023/11/04 06:38:33;;;;;;;4.55;1.95;;;;;;;18.53;87.49;98165.47;5020241;28;20156;-39
2023/11/04 06:40:59;;;;;;;4.55;1.95;;;;;;;18.58;87.12;98170.72;5026519;28;20107;-39
2023/11/04 06:43:27;;;;;;;3.85;2.03;;;;;;;18.63;86.39;98169.69;5023297;28;20383;-39
2023/11/04 06:45:53;;;;;;;4.95;2.00;;;;;;;18.70;86.37;98172.66;5022427;28;20147;-38
2023/11/04 06:48:18;;;;;;;4.78;2.20;;;;;;;18.79;86.21;98177.22;5018697;28;20061;-39
2023/11/04 06:50:45;;;;;;;4.40;1.77;;;;;;;18.85;85.59;98171.13;5023837;28;20045;-38
2023/11/04 06:53:10;;;;;;;3.88;2.00;;;;;;;18.92;85.57;98173.34;5016576;28;20533;-38
2023/11/04 06:55:36;;;;;;;4.18;1.85;;;;;;;19.00;85.00;98172.38;5020346;28;20164;-37
2023/11/04 06:58:01;;;;;;;4.00;1.95;;;;;;;19.11;85.12;98171.91;5018946;28;20057;-38
2023/11/04 07:00:27;;;;;;;3.75;2.00;;;;;;;19.19;84.90;98180.00;5027026;28;20017;-39
2023/11/04 07:02:52;;;;;;;3.15;1.70;;;;;;;19.30;84.65;98179.47;5019507;28;20065;-39
2023/11/04 07:05:18;;;;;;;4.22;1.90;;;;;;;19.40;84.28;98173.50;5025085;28;20347;-39
2023/11/04 07:07:43;;;;;;;4.80;2.17;;;;;;;19.50;83.70;98162.00;5015548;28;20025;-38
2023/11/04 07:10:12;;;;;;;3.42;1.98;;;;;;;19.61;83.65;98158.72;5023143;28;20084;-38
2023/11/04 07:12:38;;;;;;;4.32;2.10;;;;;;;19.70;83.22;98165.66;5021301;28;20500;-43
2023/11/04 07:15:04;;;;;;;5.35;1.80;;;;;;;19.81;83.03;98157.69;5021097;28;20474;-44
2023/11/04 07:17:30;;;;;;;8.30;2.08;;;;;;;19.90;82.71;98154.00;5021412;28;20055;-44
2023/11/04 07:19:57;;;;;;;3.75;2.00;;;;;;;19.98;82.05;98156.56;5020593;28;20029;-44
2023/11/04 07:22:25;;;;;;;5.35;2.10;;;;;;;20.07;81.61;98144.59;5010409;28;20827;-44
2023/11/04 07:24:51;;;;;;;2.88;1.73;;;;;;;20.15;81.68;98136.16;5023224;28;20037;-45
2023/11/04 07:27:16;;;;;;;4.10;2.10;;;;;;;20.22;81.49;98132.81;5017972;28;20239;-39
2023/11/04 07:29:42;;;;;;;5.25;2.42;;;;;;;20.29;80.87;98115.66;5019197;28;20021;-39
2023/11/04 07:32:07;;;;;;;4.38;2.10;;;;;;;20.35;80.77;98105.97;5017457;28;20044;-39
2023/11/04 07:34:33;;;;;;;4.50;2.53;;;;;;;20.39;80.80;98109.59;5014629;28;20067;-39
2023/11/04 07:37:00;;;;;;;3.33;1.95;;;;;;;20.43;80.47;98106.91;5017391;28;20406;-39
2023/11/04 07:39:27;;;;;;;4.70;2.10;;;;;;;20.44;80.94;98117.59;5018393;28;20376;-38
2023/11/04 07:41:53;;;;;;;2.60;1.75;;;;;;;20.46;80.61;98120.75;5018967;28;20080;-39
2023/11/04 07:44:18;;;;;;;2.97;1.77;;;;;;;20.47;80.62;98107.81;5023169;28;20026;-45
2023/11/04 07:46:44;;;;;;;3.40;1.92;;;;;;;20.48;80.23;98109.41;5028724;28;20037;-44
2023/11/04 07:49:10;;;;;;;4.82;2.05;;;;;;;20.48;80.12;98101.16;5021618;28;20036;-45
2023/11/04 07:51:35;;;;;;;5.10;2.40;;;;;;;20.47;80.27;98094.84;5022840;28;20033;-45
2023/11/04 07:54:01;;;;;;;4.88;2.20;;;;;;;20.47;80.56;98086.59;5018354;28;20026;-44
2023/11/04 07:56:27;;;;;;;2.83;1.60;;;;;;;20.46;80.23;98081.47;5015874;28;20105;-44
2023/11/04 07:58:52;;;;;;;4.22;2.08;;;;;;;20.44;80.19;98081.81;5021021;28;20513;-43
2023/11/04 08:01:19;;;;;;;3.85;1.90;;;;;;;20.42;80.04;98075.88;5014564;28;20029;-44
2023/11/04 08:03:45;;;;;;;6.95;2.35;;;;;;;20.39;80.04;98075.78;5013280;28;20025;-44
2023/11/04 08:06:11;;;;;;;9.35;2.25;;;;;;;20.33;80.32;98065.09;5019737;28;20040;-45
2023/11/04 08:08:37;;;;;;;5.25;2.15;;;;;;;20.28;80.24;98057.13;5016765;28;20021;-45
2023/11/04 08:11:03;;;;;;;4.15;2.08;;;;;;;20.24;80.49;98058.97;5022577;28;20037;-45
2023/11/04 08:13:28;;;;;;;4.97;2.00;;;;;;;20.19;80.16;98060.03;5014601;28;20018;-44
2023/11/04 08:15:54;;;;;;;4.13;2.08;;;;;;;20.14;80.38;98052.06;5017726;28;20040;-44
2023/11/04 08:18:20;;;;;;;3.95;1.98;;;;;;;20.09;80.71;98048.81;5015592;28;20029;-45
2023/11/04 08:20:47;;;;;;;4.35;2.00;;;;;;;20.06;80.72;98038.53;5020549;28;20029;-45
2023/11/04 08:23:12;;;;;;;4.65;2.05;;;;;;;19.99;80.68;98033.69;5013528;28;20026;-44
2023/11/04 08:25:37;;;;;;;4.50;1.95;;;;;;;19.96;81.02;98023.38;5018435;28;20470;-46
2023/11/04 08:28:03;;;;;;;5.63;2.13;;;;;;;19.91;80.70;98023.66;5022257;28;20075;-44
2023/11/04 08:30:29;;;;;;;11.52;2.22;;;;;;;19.87;81.23;98012.59;5018438;28;20033;-45
2023/11/04 08:32:55;;;;;;;4.18;1.83;;;;;;;19.83;80.87;97993.28;5018358;28;20091;-45
2023/11/04 08:35:21;;;;;;;5.93;2.22;;;;;;;19.80;81.20;97993.16;5024554;28;20033;-45
2023/11/04 08:37:46;;;;;;;7.85;2.70;;;;;;;19.77;81.14;97991.94;5025225;28;20411;-45
2023/11/04 08:40:12;;;;;;;12.23;2.72;;;;;;;19.74;81.50;97992.63;5016594;28;20044;-45
2023/11/04 08:42:37;;;;;;;5.88;2.10;;;;;;;19.72;81.41;97989.47;5023896;28;20026;-44
2023/11/04 08:45:03;;;;;;;6.72;2.35;;;;;;;19.69;81.18;97984.66;5024777;28;20422;-39
2023/11/04 08:47:28;;;;;;;7.63;2.30;;;;;;;19.67;81.19;97985.03;5025571;28;20044;-45
2023/11/04 08:49:53;;;;;;;6.25;1.92;;;;;;;19.64;81.41;97973.94;5017091;28;20052;-44
2023/11/04 08:52:19;;;;;;;5.10;2.13;;;;;;;19.62;81.49;97974.31;5014784;28;20052;-45
2023/11/04 08:54:44;;;;;;;5.20;2.10;;;;;;;19.60;81.50;97971.13;5014777;28;20453;-45
2023/11/04 08:57:10;;;;;;;6.97;2.40;;;;;;;19.59;81.37;97982.47;5020699;28;20056;-44
2023/11/04 08:59:36;;;;;;;11.27;2.40;;;;;;;19.56;81.04;97973.78;5019918;28;20482;-44
2023/11/04 09:02:02;;;;;;;7.50;2.20;;;;;;;19.54;81.48;97973.34;5024744;28;20091;-45
2023/11/04 09:04:27;;;;;;;5.07;2.05;;;;;;;19.53;81.37;97959.97;5014555;28;20445;-45
2023/11/04 09:06:53;;;;;;;7.95;2.17;;;;;;;19.51;81.17;97956.75;5021375;28;20057;-45
2023/11/04 09:09:21;;;;;;;5.05;1.92;;;;;;;19.50;80.90;97945.00;5014046;28;20026;-44
2023/11/04 09:11:47;;;;;;;4.93;2.28;;;;;;;19.48;81.10;97950.03;5014388;28;20038;-45
2023/11/04 09:14:12;;;;;;;5.28;2.10;;;;;;;19.47;81.02;97945.72;5021055;28;20037;-45
2023/11/04 09:16:38;;;;;;;6.55;2.35;;;;;;;19.46;80.97;97940.56;5018912;28;20037;-47
2023/11/04 09:19:03;;;;;;;7.47;2.15;;;;;;;19.45;80.60;97936.22;5015369;28;20040;-44
2023/11/04 09:21:29;;;;;;;5.38;2.38;;;;;;;19.43;80.83;97931.09;5012159;28;20692;-45
2023/11/04 09:23:55;;;;;;;5.03;2.40;;;;;;;19.43;81.00;97916.56;5025422;28;20068;-46
2023/11/04 09:26:20;;;;;;;5.43;2.13;;;;;;;19.42;80.84;97923.22;5017825;28;20059;-44
2023/11/04 09:28:45;;;;;;;5.53;2.03;;;;;;;19.40;80.57;97916.13;5016098;28;20018;-46
2023/11/04 09:31:13;;;;;;;5.22;2.13;;;;;;;19.39;80.75;97911.00;5019939;28;20030;-45
2023/11/04 09:33:38;;;;;;;5.43;1.77;;;;;;;19.37;80.39;97908.63;5024348;28;20166;-46
2023/11/04 09:36:04;;;;;;;6.18;2.10;;;;;;;19.35;79.98;97899.94;5018728;28;20033;-45
2023/11/04 09:38:29;;;;;;;6.95;2.15;;;;;;;19.34;80.03;97903.03;5020410;28;20132;-44
2023/11/04 09:40:55;;;;;;;4.97;2.00;;;;;;;19.31;80.12;97896.31;5022460;28;20056;-46
2023/11/04 09:43:20;;;;;;;4.53;2.22;;;;;;;19.29;80.23;97884.88;5014283;28;20037;-45
2023/11/04 09:45:46;;;;;;;6.43;2.20;;;;;;;19.27;79.87;97889.91;5010624;28;20049;-44
2023/11/04 09:48:11;;;;;;;3.50;1.70;;;;;;;19.26;80.25;97882.03;5015684;28;20565;-45
2023/11/04 09:50:37;;;;;;;7.97;1.98;;;;;;;19.21;80.17;97867.44;5010659;28;20532;-39
2023/11/04 09:53:10;;;;;;;4.30;2.10;;;;;;;19.20;79.79;97876.03;5019676;28;20040;-39
2023/11/04 09:55:35;;;;;;;5.22;1.95;;;;;;;19.16;79.98;97873.19;5018091;28;20026;-39
2023/11/04 09:58:01;;;;;;;5.70;2.00;;;;;;;19.14;80.00;97858.22;5022022;28;20038;-39
2023/11/04 10:00:27;;;;;;;4.75;2.10;;;;;;;19.12;80.39;97853.09;5014821;28;20084;-39
2023/11/04 10:02:52;;;;;;;5.95;2.10;;;;;;;19.10;80.08;97854.63;5019041;28;20125;-39
2023/11/04 10:05:18;;;;;;;5.68;1.98;;;;;;;19.08;80.14;97839.28;5021609;28;20486;-39
2023/11/04 10:07:43;;;;;;;5.53;2.25;;;;;;;19.06;79.68;97840.81;5017122;28;20029;-39
2023/11/04 10:10:10;;;;;;;4.00;2.20;;;;;;;19.04;80.23;97835.69;5016085;28;20037;-39
2023/11/04 10:12:38;;;;;;;3.50;2.05;;;;;;;19.01;80.11;97827.34;5016501;28;20048;-39
2023/11/04 10:15:06;;;;;;;3.88;1.70;;;;;;;19.00;80.29;97817.53;5025847;28;20044;-39
2023/11/04 10:17:32;;;;;;;5.28;2.00;;;;;;;18.98;80.17;97806.91;5019358;28;20084;-39
2023/11/04 10:19:58;;;;;;;5.95;2.75;;;;;;;18.97;80.02;97804.50;5021132;28;20108;-38
2023/11/04 10:22:24;;;;;;;6.43;2.10;;;;;;;18.94;80.02;97806.00;5016883;28;20108;-38
2023/11/04 10:24:49;;;;;;;7.47;2.08;;;;;;;18.93;80.13;97796.19;5013490;28;20036;-39
2023/11/04 10:27:16;;;;;;;6.00;1.80;;;;;;;18.92;80.27;97791.88;5019660;28;20022;-45
2023/11/04 10:29:41;;;;;;;5.45;1.70;;;;;;;18.88;79.90;97786.28;5014672;28;20024;-44
2023/11/04 10:32:11;;;;;;;5.95;2.03;;;;;;;18.86;80.42;97774.84;5011856;28;20034;-39
2023/11/04 10:34:44;;;;;;;12.27;2.60;;;;;;;18.84;80.61;97765.38;5017042;28;20018;-39
2023/11/04 10:37:10;;;;;;;8.65;2.25;;;;;;;18.82;80.17;97754.78;5004850;28;20025;-38
2023/11/04 10:39:36;;;;;;;6.60;2.00;;;;;;;18.81;80.05;97755.09;5016032;28;20127;-38
2023/11/04 10:42:10;;;;;;;6.88;2.28;;;;;;;18.77;80.16;97735.81;5026226;28;20048;-39
2023/11/04 10:44:40;;;;;;;5.85;1.77;;;;;;;18.75;80.38;97738.16;5020741;28;20337;-39
2023/11/04 10:47:25;;;;;;;6.05;1.90;;;;;;;18.76;80.78;97731.47;5020180;28;20385;-38
2023/11/04 10:50:06;;;;;;;5.25;2.20;;;;;;;18.77;80.69;97722.91;5018551;28;20036;-39
2023/11/04 10:52:36;;;;;;;3.90;2.05;;;;;;;18.80;80.20;97726.06;5019997;28;20387;-38
2023/11/04 10:55:02;;;;;;;4.68;1.70;;;;;;;18.84;80.66;97713.25;5023583;28;20107;-39
2023/11/04 10:57:35;;;;;;;4.97;1.90;;;;;;;18.86;80.58;97694.47;5015868;28;20622;-39
2023/11/04 11:00:06;;;;;;;7.32;2.28;;;;;;;18.90;80.16;97687.13;5015876;28;20033;-39
2023/11/04 11:02:33;;;;;;;5.53;1.75;;;;;;;18.93;80.40;97689.16;5017670;28;20317;-39
2023/11/04 11:04:58;;;;;;;5.25;1.70;;;;;;;18.96;79.73;97682.16;5021428;28;20437;-39
2023/11/04 11:07:24;;;;;;;3.75;2.05;;;;;;;18.97;79.85;97668.09;4999669;28;20057;-38
2023/11/04 11:09:51;;;;;;;4.43;1.80;;;;;;;18.99;79.76;97660.28;5018284;28;20429;-39
2023/11/04 11:12:20;;;;;;;3.53;1.65;;;;;;;19.00;79.70;97652.88;5023700;28;20108;-39
2023/11/04 11:14:45;;;;;;;4.65;1.58;;;;;;;18.99;79.85;97638.31;5019756;28;20084;-38
2023/11/04 11:17:11;;;;;;;4.15;1.90;;;;;;;19.00;79.55;97626.19;5031845;28;20316;-39
2023/11/04 11:19:51;;;;;;;3.75;1.70;;;;;;;19.00;79.63;97614.44;5020482;28;20103;-39
2023/11/04 11:22:27;;;;;;;3.65;1.70;;;;;;;19.00;79.38;97615.22;5012673;28;20561;-39
2023/11/04 11:24:56;;;;;;;3.97;1.60;;;;;;;19.02;79.71;97606.66;5010153;28;20421;-39
2023/11/04 11:27:22;;;;;;;3.53;1.50;;;;;;;19.03;79.90;97594.50;5018407;28;20057;-39
2023/11/04 11:29:48;;;;;;;3.13;1.73;;;;;;;19.04;79.84;97585.91;5014511;28;20034;-38